»·PEaware :: N313AL KSMX-KBFL

N313AL :: KSMX-KBFL

FLIGHT INFORMATION

Flight Status: Arrived
Operator: Privately registered:
United States
More flights under this callsign
Pilot: Jeremy M. (27487)
Aircraft: CESSNA 172 SKYHAWK
(C172)
More flights by this aircraft type
Origin: KSMX Santa Maria Pub/Capt Hancock
United States
Destination: KBFL Meadows
United States
More flights between these airports :: More routes between these airports
Route:
File this flight plan on PilotEdge
Remarks: Cat-5
Altitude:
(Current/Filed)
7,500ft
Speed:
(Current/Filed)
120kts
Departed: 14-Jan-20 06:40 PM
Arrived: 14-Jan-20 07:26 PM
Distance/Time
Traveled:
76nm/0:46
Distance/Time
To Go:
Arrived

Flight Plot

Page will automatically refresh every two minutes.


Map Options




Map Legend


Flown Route
Filed Route
Departure Airport
Arrival Airport
Navaid (VOR, NDB)
Fix

Horizontal Profiles

Position Reports

Time Latitude Longitude Heading Altitude Ground
Speed
14-Jan-20 18:23 34.895991 -120.445069 314 265ft 0kts
14-Jan-20 18:24 34.895991 -120.445069 314 265ft 0kts
14-Jan-20 18:24 34.895991 -120.445069 314 265ft 0kts
14-Jan-20 18:29 34.895991 -120.445069 314 265ft 0kts
14-Jan-20 18:30 34.895991 -120.445069 314 265ft 0kts
14-Jan-20 18:31 34.895991 -120.445069 314 265ft 0kts
14-Jan-20 18:32 34.895991 -120.445069 314 265ft 0kts
14-Jan-20 18:33 34.895991 -120.445069 314 265ft 0kts
14-Jan-20 18:34 34.895991 -120.445069 314 265ft 0kts
14-Jan-20 18:35 34.895481 -120.445079 158 265ft 9kts
14-Jan-20 18:36 34.893387 -120.444994 179 265ft 0kts
14-Jan-20 18:37 34.893334 -120.445007 202 265ft 3kts
14-Jan-20 18:38 34.893286 -120.445040 214 265ft 0kts
14-Jan-20 18:39 34.902420 -120.456590 317 616ft 78kts
14-Jan-20 18:40 34.921913 -120.454053 51 1593ft 92kts
14-Jan-20 18:41 34.935332 -120.425503 54 2414ft 94kts
14-Jan-20 18:42 34.946562 -120.397455 54 3324ft 77kts
14-Jan-20 18:43 34.958279 -120.368046 54 3921ft 99kts
14-Jan-20 18:44 34.970840 -120.336930 54 4629ft 98kts
14-Jan-20 18:45 34.983089 -120.305531 54 5351ft 92kts
14-Jan-20 18:46 34.993865 -120.276136 54 5974ft 92kts
14-Jan-20 18:47 35.008002 -120.240270 54 6351ft 115kts
14-Jan-20 18:48 35.023448 -120.201955 54 6884ft 113kts
14-Jan-20 18:49 35.039148 -120.163600 55 7294ft 121kts
14-Jan-20 18:50 35.057140 -120.121724 55 7493ft 131kts
14-Jan-20 18:51 35.077409 -120.076136 55 7494ft 142kts
14-Jan-20 18:52 35.098612 -120.029035 55 7488ft 144kts
14-Jan-20 18:53 35.119390 -119.982850 55 7491ft 144kts
14-Jan-20 18:54 35.140319 -119.935955 55 7495ft 144kts
14-Jan-20 18:55 35.159848 -119.888098 60 7501ft 145kts
14-Jan-20 18:56 35.169066 -119.835653 89 7504ft 149kts
14-Jan-20 18:57 35.176960 -119.782251 67 7503ft 146kts
14-Jan-20 18:58 35.193287 -119.732413 62 7488ft 142kts
14-Jan-20 18:59 35.209113 -119.683053 67 6361ft 141kts
14-Jan-20 19:00 35.221173 -119.634574 68 4964ft 131kts
14-Jan-20 19:01 35.221496 -119.588749 97 4636ft 113kts
14-Jan-20 19:02 35.212898 -119.551415 121 5224ft 128kts
14-Jan-20 19:03 35.200405 -119.559043 3 4805ft 113kts
14-Jan-20 19:04 35.202595 -119.553351 37 3227ft 138kts
14-Jan-20 19:05 35.222610 -119.514646 52 2428ft 123kts
14-Jan-20 19:06 35.240780 -119.477127 52 2319ft 116kts
14-Jan-20 19:07 35.258966 -119.441873 53 2243ft 116kts
14-Jan-20 19:08 35.276158 -119.407352 51 2259ft 109kts
14-Jan-20 19:09 35.291064 -119.372681 56 2299ft 111kts
14-Jan-20 19:10 35.305134 -119.336690 58 2332ft 112kts
14-Jan-20 19:11 35.319421 -119.300383 58 2330ft 113kts
14-Jan-20 19:12 35.333319 -119.265331 55 2338ft 112kts
14-Jan-20 19:13 35.347363 -119.230104 57 2345ft 113kts
14-Jan-20 19:14 35.362278 -119.196052 53 2354ft 112kts
14-Jan-20 19:15 35.374869 -119.160955 63 2320ft 110kts
14-Jan-20 19:16 35.363090 -119.131151 145 2236ft 117kts
14-Jan-20 19:17 35.336346 -119.108242 135 2135ft 119kts
14-Jan-20 19:18 35.330533 -119.071513 70 2026ft 107kts
14-Jan-20 19:19 35.342464 -119.038518 61 1899ft 107kts
14-Jan-20 19:20 35.356408 -119.007331 42 1776ft 102kts
14-Jan-20 19:21 35.378259 -118.991091 334 1588ft 98kts
14-Jan-20 19:22 35.396001 -119.010708 320 1314ft 69kts
14-Jan-20 19:23 35.410314 -119.027978 318 1022ft 74kts
14-Jan-20 19:24 35.425248 -119.045866 318 709ft 74kts
14-Jan-20 19:25 35.437472 -119.060358 357 499ft 17kts
14-Jan-20 19:26 35.438160 -119.059938 69 499ft 0kts
14-Jan-20 19:27 35.436787 -119.055545 138 499ft 17kts
14-Jan-20 19:28 35.434941 -119.055170 138 499ft 14kts
14-Jan-20 19:29 35.435610 -119.053457 106 499ft 0kts

Navigation Log

Ident Type
Flight plan parsing failed, navigation log unavailable